Time;durP1;ratioP1;P1;durP2;ratioP2;P2;SDS_P1;SDS_P2;PMS_P1;PMS_P2;Temp;Humidity;BMP_temperature;BMP_pressure;BME280_temperature;BME280_humidity;BME280_pressure;Samples;Min_cycle;Max_cycle;Signal;HPM_P1;HPM_P2
2021/05/19 00:00:19;;;;;;;15.53;13.10;;;10.50;98.30;;;;;;5177253;23;20432;-83
2021/05/19 00:02:21;;;;;;;15.00;13.00;;;10.50;98.30;;;;;;5186238;23;20488;-83
2021/05/19 00:04:24;;;;;;;17.57;13.70;;;10.50;98.30;;;;;;5178249;22;20523;-84
2021/05/19 00:06:27;;;;;;;14.17;12.37;;;10.60;98.30;;;;;;5188074;23;20415;-83
2021/05/19 00:08:30;;;;;;;14.57;12.27;;;10.60;98.30;;;;;;5187295;23;20423;-83
2021/05/19 00:10:32;;;;;;;15.20;13.20;;;10.60;98.30;;;;;;5187648;23;20480;-83
2021/05/19 00:12:35;;;;;;;17.93;13.73;;;10.70;98.30;;;;;;5187440;23;20427;-83
2021/05/19 00:14:38;;;;;;;16.97;13.20;;;10.70;98.30;;;;;;5186443;22;20454;-83
2021/05/19 00:16:40;;;;;;;18.57;13.93;;;10.70;98.30;;;;;;5187372;23;20424;-83
2021/05/19 00:18:42;;;;;;;15.17;12.83;;;10.70;98.30;;;;;;5187579;23;20673;-84
2021/05/19 00:20:45;;;;;;;15.00;12.00;;;10.70;98.30;;;;;;5178680;23;20809;-83
2021/05/19 00:22:48;;;;;;;17.63;13.20;;;10.70;98.30;;;;;;5187953;23;20420;-84
2021/05/19 00:24:50;;;;;;;14.50;12.53;;;10.80;98.30;;;;;;5178901;22;20467;-84
2021/05/19 00:26:53;;;;;;;16.43;12.87;;;10.80;98.30;;;;;;5187870;23;20412;-84
2021/05/19 00:28:56;;;;;;;17.07;12.80;;;10.80;98.30;;;;;;5187532;22;20431;-84
2021/05/19 00:31:02;;;;;;;15.70;11.83;;;10.80;98.30;;;;;;5178823;23;20459;-84
2021/05/19 00:33:05;;;;;;;14.00;12.50;;;10.80;98.30;;;;;;5181379;23;20396;-85
2021/05/19 00:35:08;;;;;;;16.63;12.77;;;10.80;98.30;;;;;;5187163;22;20940;-84
2021/05/19 00:37:15;;;;;;;13.63;11.87;;;10.80;98.30;;;;;;5185121;22;20422;-84
2021/05/19 00:39:18;;;;;;;17.00;13.40;;;10.80;98.30;;;;;;5184906;23;20426;-84
2021/05/19 00:41:21;;;;;;;15.57;12.70;;;10.70;98.30;;;;;;5184426;23;20420;-84
2021/05/19 00:43:24;;;;;;;16.50;13.03;;;10.70;98.30;;;;;;5185901;23;20443;-84
2021/05/19 00:45:27;;;;;;;12.80;11.23;;;10.60;98.30;;;;;;5185251;22;20875;-84
2021/05/19 00:47:34;;;;;;;13.80;12.33;;;10.50;98.30;;;;;;5185705;23;20471;-84
2021/05/19 00:49:36;;;;;;;15.83;12.57;;;10.50;98.30;;;;;;5186292;23;20633;-83
2021/05/19 00:51:39;;;;;;;15.77;12.63;;;10.50;98.30;;;;;;5178607;23;20431;-83
2021/05/19 00:53:41;;;;;;;15.10;12.73;;;10.50;98.30;;;;;;5178962;23;20427;-83
2021/05/19 00:55:45;;;;;;;15.23;12.43;;;10.50;98.30;;;;;;5179659;22;20503;-84
2021/05/19 00:57:50;;;;;;;13.80;12.00;;;10.40;98.30;;;;;;5187984;23;20416;-84
2021/05/19 00:59:53;;;;;;;16.10;12.60;;;10.50;98.30;;;;;;5181087;23;20476;-83
2021/05/19 01:01:55;;;;;;;15.60;12.70;;;10.50;98.30;;;;;;5180065;23;20486;-82
2021/05/19 01:03:58;;;;;;;16.30;12.60;;;10.50;98.30;;;;;;5186474;23;20808;-82
2021/05/19 01:06:03;;;;;;;18.20;14.20;;;10.50;98.30;;;;;;5187135;22;20852;-83
2021/05/19 01:10:27;;;;;;;16.07;12.97;;;10.30;98.30;;;;;;5188109;22;21075;-83
2021/05/19 01:12:31;;;;;;;15.47;11.77;;;10.10;98.30;;;;;;5177551;23;20428;-83
2021/05/19 01:14:34;;;;;;;17.23;13.57;;;10.00;98.30;;;;;;5185053;22;20440;-82
2021/05/19 01:16:36;;;;;;;17.63;13.27;;;9.80;98.30;;;;;;5176684;23;20538;-83
2021/05/19 01:18:40;;;;;;;18.70;15.43;;;9.60;98.30;;;;;;5184940;23;20907;-83
2021/05/19 01:20:42;;;;;;;24.50;14.37;;;9.60;98.30;;;;;;5177383;23;20459;-83
2021/05/19 01:22:46;;;;;;;20.00;15.33;;;9.60;98.30;;;;;;5176842;23;20423;-83
2021/05/19 01:24:50;;;;;;;19.30;14.13;;;9.60;98.30;;;;;;5176103;22;20451;-82
2021/05/19 01:26:52;;;;;;;21.47;15.50;;;9.70;98.30;;;;;;5186396;23;20530;-83
2021/05/19 01:28:55;;;;;;;18.93;14.30;;;9.80;98.30;;;;;;5187134;23;20416;-82
2021/05/19 01:30:57;;;;;;;21.57;16.47;;;9.70;98.30;;;;;;5178673;23;20432;-84
2021/05/19 01:33:00;;;;;;;21.50;15.60;;;9.80;98.30;;;;;;5186956;23;20402;-82
2021/05/19 01:35:07;;;;;;;19.17;15.87;;;9.80;98.30;;;;;;5185802;22;20458;-84
2021/05/19 01:37:12;;;;;;;19.50;15.60;;;9.90;98.30;;;;;;5187633;23;20551;-83
2021/05/19 01:39:15;;;;;;;19.80;15.67;;;10.00;98.30;;;;;;5178971;22;20443;-84
2021/05/19 01:41:18;;;;;;;19.00;15.40;;;10.00;98.30;;;;;;5178194;23;20430;-84
2021/05/19 01:43:30;;;;;;;20.97;16.80;;;10.10;98.30;;;;;;5186235;23;20443;-83
2021/05/19 01:45:32;;;;;;;20.67;15.70;;;10.10;98.30;;;;;;5185688;22;20519;-84
2021/05/19 01:47:42;;;;;;;22.43;16.47;;;10.10;98.30;;;;;;5177624;23;20424;-83
2021/05/19 01:49:45;;;;;;;21.23;16.57;;;10.10;98.30;;;;;;5177606;23;20443;-83
2021/05/19 01:51:49;;;;;;;23.47;15.97;;;10.10;98.30;;;;;;5177551;23;20511;-83
2021/05/19 01:53:51;;;;;;;22.57;16.00;;;10.10;98.30;;;;;;5177935;23;20510;-83
2021/05/19 01:55:55;;;;;;;22.73;17.37;;;10.10;98.30;;;;;;5178276;22;20448;-83
2021/05/19 01:57:58;;;;;;;21.90;16.30;;;10.10;98.30;;;;;;5187323;23;20424;-83
2021/05/19 02:00:01;;;;;;;22.67;16.80;;;10.00;98.30;;;;;;5187071;23;20416;-83
2021/05/19 02:02:04;;;;;;;21.30;16.73;;;10.00;98.30;;;;;;5187361;23;20463;-84
2021/05/19 02:04:09;;;;;;;22.47;17.93;;;9.90;98.30;;;;;;5186775;22;20486;-84
2021/05/19 02:06:11;;;;;;;23.53;16.30;;;9.90;98.30;;;;;;5189658;23;20475;-83
2021/05/19 02:08:14;;;;;;;23.03;16.73;;;9.90;98.30;;;;;;5180953;23;20483;-84
2021/05/19 02:10:21;;;;;;;20.63;16.00;;;10.00;98.30;;;;;;5188786;23;20409;-84
2021/05/19 02:12:24;;;;;;;21.30;16.30;;;10.00;98.30;;;;;;5180672;23;20485;-84
2021/05/19 02:14:27;;;;;;;23.87;18.80;;;10.00;98.30;;;;;;5178083;22;20455;-83
2021/05/19 02:16:29;;;;;;;21.10;15.70;;;9.90;98.30;;;;;;5188902;23;20420;-83
2021/05/19 02:18:32;;;;;;;22.30;18.60;;;10.00;98.30;;;;;;5180657;22;20456;-83
2021/05/19 02:20:35;;;;;;;22.30;16.27;;;10.00;98.30;;;;;;5179863;23;20424;-85
2021/05/19 02:22:37;;;;;;;20.30;16.37;;;10.10;98.30;;;;;;5188564;23;20423;-84
2021/05/19 02:24:40;;;;;;;23.37;17.10;;;10.10;98.30;;;;;;5178624;22;20482;-83
2021/05/19 02:26:43;;;;;;;21.73;17.03;;;10.10;98.30;;;;;;5181005;23;20503;-83
2021/05/19 02:28:47;;;;;;;24.27;16.90;;;10.10;98.30;;;;;;5188506;23;20507;-83
2021/05/19 02:30:49;;;;;;;22.13;16.97;;;10.00;98.30;;;;;;5181028;23;20456;-83
2021/05/19 02:32:52;;;;;;;20.57;16.47;;;10.00;98.30;;;;;;5180445;23;20428;-84
2021/05/19 02:34:54;;;;;;;21.80;16.87;;;10.00;98.30;;;;;;5188578;22;20467;-83
2021/05/19 02:36:57;;;;;;;23.40;17.57;;;10.00;98.30;;;;;;5179080;23;20492;-82
2021/05/19 02:39:00;;;;;;;24.27;17.13;;;10.00;98.30;;;;;;5174091;23;20450;-82
2021/05/19 02:41:03;;;;;;;27.63;18.60;;;9.90;98.30;;;;;;5183384;23;21054;-84
2021/05/19 02:43:10;;;;;;;36.83;24.70;;;9.90;98.30;;;;;;5179582;23;20507;-84
2021/05/19 02:45:15;;;;;;;28.73;21.10;;;9.90;98.30;;;;;;5188576;22;20474;-84
2021/05/19 02:47:18;;;;;;;30.30;20.90;;;9.90;98.30;;;;;;5186054;23;20412;-84
2021/05/19 02:49:20;;;;;;;27.23;20.07;;;9.90;98.30;;;;;;5176330;23;20434;-82
2021/05/19 02:51:22;;;;;;;24.03;18.37;;;9.90;98.30;;;;;;5188308;23;20491;-83
2021/05/19 02:53:25;;;;;;;25.30;18.77;;;9.90;98.30;;;;;;5179572;23;20447;-82
2021/05/19 02:55:27;;;;;;;22.70;17.13;;;10.00;98.30;;;;;;5185854;22;20463;-83
2021/05/19 02:57:30;;;;;;;22.73;17.10;;;10.00;98.30;;;;;;5176996;23;20435;-82
2021/05/19 02:59:32;;;;;;;23.50;16.83;;;10.10;98.30;;;;;;5187023;23;20535;-83
2021/05/19 03:01:36;;;;;;;22.37;17.40;;;10.10;98.30;;;;;;5179816;23;20496;-84
2021/05/19 03:03:38;;;;;;;25.23;18.27;;;10.10;98.30;;;;;;5178392;23;20496;-83
2021/05/19 03:05:41;;;;;;;22.77;17.27;;;10.10;98.30;;;;;;5175311;22;20480;-83
2021/05/19 03:07:44;;;;;;;23.43;17.70;;;10.10;98.30;;;;;;5184061;23;20455;-83
2021/05/19 03:09:47;;;;;;;21.93;16.43;;;10.10;98.30;;;;;;5176992;23;20438;-83
2021/05/19 03:11:49;;;;;;;20.90;16.60;;;10.10;98.30;;;;;;5184974;23;20803;-83
2021/05/19 03:13:52;;;;;;;24.67;18.17;;;10.00;98.30;;;;;;5187798;23;20428;-83
2021/05/19 03:15:57;;;;;;;24.53;18.40;;;10.00;98.30;;;;;;5178729;22;20458;-84
2021/05/19 03:18:00;;;;;;;23.60;18.93;;;9.90;98.30;;;;;;5186509;23;20785;-82
2021/05/19 03:20:03;;;;;;;23.07;18.00;;;9.90;98.30;;;;;;5186503;23;20426;-82
2021/05/19 03:22:06;;;;;;;24.70;19.10;;;9.80;98.30;;;;;;5177968;22;20427;-83
2021/05/19 03:24:09;;;;;;;24.53;18.40;;;9.70;98.30;;;;;;5176028;22;20515;-83
2021/05/19 03:26:11;;;;;;;26.00;18.83;;;9.60;98.30;;;;;;5178888;22;20403;-83
2021/05/19 03:28:14;;;;;;;25.67;18.60;;;9.60;98.30;;;;;;5187447;23;20447;-83
2021/05/19 03:30:17;;;;;;;25.87;18.60;;;9.60;98.30;;;;;;5187922;23;20427;-83
2021/05/19 03:32:20;;;;;;;29.73;20.90;;;9.70;98.30;;;;;;5181455;22;20504;-83
2021/05/19 03:34:23;;;;;;;26.23;19.07;;;9.70;98.30;;;;;;5175148;22;20444;-83
2021/05/19 03:36:26;;;;;;;28.50;20.40;;;9.70;98.30;;;;;;5176483;23;20412;-82
2021/05/19 03:38:28;;;;;;;27.53;19.47;;;9.70;98.30;;;;;;5176512;23;20432;-83
2021/05/19 03:40:31;;;;;;;28.37;21.30;;;9.80;98.30;;;;;;5185062;23;20435;-83
2021/05/19 03:42:33;;;;;;;30.47;20.30;;;9.80;98.30;;;;;;5175471;23;20428;-82
2021/05/19 03:44:36;;;;;;;24.77;19.10;;;9.90;98.30;;;;;;5174077;22;20474;-82
2021/05/19 03:46:38;;;;;;;28.47;20.67;;;9.90;98.30;;;;;;5172968;23;20432;-82
2021/05/19 03:48:43;;;;;;;26.93;19.67;;;9.90;98.30;;;;;;5172791;23;20434;-82
2021/05/19 03:50:46;;;;;;;24.77;19.23;;;10.00;98.30;;;;;;5173092;23;20420;-82
2021/05/19 03:52:49;;;;;;;25.57;18.77;;;10.10;98.30;;;;;;5172180;23;20434;-82
2021/05/19 03:54:51;;;;;;;23.80;19.30;;;10.10;98.30;;;;;;5175833;22;20470;-83
2021/05/19 03:56:54;;;;;;;25.33;19.53;;;10.10;98.30;;;;;;5176655;23;20459;-83
2021/05/19 03:58:56;;;;;;;25.50;20.03;;;10.10;98.30;;;;;;5185525;23;20420;-83
2021/05/19 04:00:59;;;;;;;26.03;19.80;;;10.10;98.30;;;;;;5184838;23;20519;-83
2021/05/19 04:03:03;;;;;;;30.57;22.87;;;10.10;98.30;;;;;;5173891;23;20406;-82
2021/05/19 04:05:06;;;;;;;31.43;23.70;;;10.20;98.30;;;;;;5171309;22;20772;-83
2021/05/19 04:07:11;;;;;;;26.77;21.53;;;10.20;98.30;;;;;;5174073;23;20428;-83
2021/05/19 04:09:13;;;;;;;28.60;20.10;;;10.30;98.30;;;;;;5173734;23;20412;-82
2021/05/19 04:11:16;;;;;;;23.30;19.20;;;10.30;98.30;;;;;;5181704;23;20489;-82
2021/05/19 04:13:18;;;;;;;24.00;18.33;;;10.30;98.30;;;;;;5173796;23;20515;-83
2021/05/19 04:15:23;;;;;;;23.23;18.47;;;10.30;98.30;;;;;;5180817;22;20819;-82
2021/05/19 04:17:25;;;;;;;24.50;19.37;;;10.30;98.30;;;;;;5181532;23;20511;-82
2021/05/19 04:19:28;;;;;;;24.23;19.30;;;10.30;98.30;;;;;;5173897;23;20431;-83
2021/05/19 04:21:31;;;;;;;23.40;19.00;;;10.30;98.30;;;;;;5183407;23;20446;-82
2021/05/19 04:23:34;;;;;;;22.07;17.77;;;10.40;98.30;;;;;;5175631;23;20428;-84
2021/05/19 04:25:37;;;;;;;24.77;18.00;;;10.40;98.30;;;;;;5176243;22;20813;-82
2021/05/19 04:27:39;;;;;;;23.77;18.00;;;10.40;98.30;;;;;;5184720;23;20454;-82
2021/05/19 04:29:42;;;;;;;24.40;19.30;;;10.30;98.30;;;;;;5176809;23;20451;-82
2021/05/19 04:31:44;;;;;;;23.87;18.50;;;10.30;98.30;;;;;;5181824;23;20922;-82
2021/05/19 04:33:47;;;;;;;21.90;18.17;;;10.20;98.30;;;;;;5180068;23;20414;-82
2021/05/19 04:35:49;;;;;;;23.43;18.03;;;10.30;98.30;;;;;;5180137;22;20937;-82
2021/05/19 04:37:51;;;;;;;21.17;18.50;;;10.30;98.30;;;;;;5184998;23;20599;-82
2021/05/19 04:39:54;;;;;;;26.90;19.40;;;10.30;98.30;;;;;;5184426;23;20451;-84
2021/05/19 04:41:57;;;;;;;22.50;18.30;;;10.40;98.30;;;;;;5175515;23;20434;-82
2021/05/19 04:43:59;;;;;;;25.97;19.70;;;10.40;98.30;;;;;;5175038;23;20487;-82
2021/05/19 04:46:02;;;;;;;23.53;19.73;;;10.40;98.30;;;;;;5175145;23;21251;-82
2021/05/19 04:48:05;;;;;;;24.27;18.50;;;10.50;98.30;;;;;;5174951;23;20736;-83
2021/05/19 04:50:11;;;;;;;22.13;18.57;;;10.50;98.30;;;;;;5173880;23;20432;-82
2021/05/19 04:52:14;;;;;;;23.13;17.70;;;10.50;98.30;;;;;;5181133;23;20404;-82
2021/05/19 04:54:17;;;;;;;23.87;18.23;;;10.50;98.30;;;;;;5172785;22;20438;-83
2021/05/19 04:56:20;;;;;;;21.00;17.53;;;10.40;98.30;;;;;;5183997;23;20456;-83
2021/05/19 04:58:26;;;;;;;22.77;17.93;;;10.40;98.30;;;;;;5176211;23;20761;-83
2021/05/19 05:00:28;;;;;;;21.60;17.33;;;10.40;98.30;;;;;;5176443;23;20427;-82
2021/05/19 05:02:31;;;;;;;21.83;17.23;;;10.40;98.30;;;;;;5178728;23;20428;-82
2021/05/19 05:04:33;;;;;;;24.33;19.30;;;10.50;98.30;;;;;;5186439;22;20448;-83
2021/05/19 05:06:35;;;;;;;21.47;18.13;;;10.50;98.30;;;;;;5179335;23;20431;-82
2021/05/19 05:08:43;;;;;;;25.23;17.70;;;10.50;98.30;;;;;;5187896;23;20456;-83
2021/05/19 05:10:46;;;;;;;24.93;17.87;;;10.40;98.30;;;;;;5186190;23;20736;-83
2021/05/19 05:12:50;;;;;;;23.07;18.87;;;10.40;98.30;;;;;;5186244;23;20433;-84
2021/05/19 05:14:53;;;;;;;23.33;19.37;;;10.40;98.30;;;;;;5177506;22;20620;-83
2021/05/19 05:16:55;;;;;;;25.20;20.33;;;10.40;98.30;;;;;;5186134;22;20424;-83
2021/05/19 05:19:00;;;;;;;24.17;18.73;;;10.50;98.30;;;;;;5187554;23;20420;-83
2021/05/19 05:21:04;;;;;;;24.77;20.60;;;10.50;98.30;;;;;;5188150;23;20451;-83
2021/05/19 05:23:06;;;;;;;28.70;21.17;;;10.50;98.30;;;;;;5187247;22;20775;-83
2021/05/19 05:25:09;;;;;;;23.73;19.37;;;10.50;98.30;;;;;;5176642;22;20452;-82
2021/05/19 05:27:12;;;;;;;29.87;22.43;;;10.50;98.30;;;;;;5177569;23;20431;-82
2021/05/19 05:29:20;;;;;;;24.27;19.27;;;10.50;98.30;;;;;;5185261;23;20410;-83
2021/05/19 05:31:23;;;;;;;25.17;20.87;;;10.50;98.30;;;;;;5185153;23;20522;-83
2021/05/19 05:33:26;;;;;;;23.23;19.03;;;10.60;98.30;;;;;;5185065;23;20500;-83
2021/05/19 05:35:28;;;;;;;21.57;18.23;;;10.70;98.30;;;;;;5171882;22;20528;-83
2021/05/19 05:37:31;;;;;;;21.53;17.70;;;10.90;98.30;;;;;;5178319;23;21017;-82
2021/05/19 05:39:33;;;;;;;72.67;48.40;;;11.00;98.30;;;;;;5169580;23;20466;-82
2021/05/19 05:41:36;;;;;;;140.47;84.90;;;11.10;98.30;;;;;;5169560;23;20813;-83
2021/05/19 05:43:39;;;;;;;42.03;29.50;;;11.10;98.30;;;;;;5169636;22;20432;-82
2021/05/19 05:45:43;;;;;;;21.53;17.97;;;11.30;98.30;;;;;;5176109;22;20458;-82
2021/05/19 05:47:45;;;;;;;20.00;17.00;;;11.30;98.30;;;;;;5168283;23;20507;-82
2021/05/19 05:49:50;;;;;;;22.73;18.20;;;11.30;98.30;;;;;;5168900;23;20765;-83
2021/05/19 05:51:52;;;;;;;19.57;15.83;;;11.40;98.30;;;;;;5178043;23;20773;-83
2021/05/19 05:53:54;;;;;;;18.23;15.50;;;11.60;98.30;;;;;;5168178;23;20485;-82
2021/05/19 05:55:57;;;;;;;31.40;22.73;;;11.70;98.30;;;;;;5177662;22;20436;-83
2021/05/19 05:57:59;;;;;;;78.17;47.90;;;11.70;98.30;;;;;;5177295;23;20426;-82
2021/05/19 06:00:04;;;;;;;27.30;20.50;;;11.70;98.30;;;;;;5170106;23;20428;-83
2021/05/19 06:02:07;;;;;;;19.70;16.20;;;11.70;98.30;;;;;;5170014;23;20423;-83
2021/05/19 06:04:10;;;;;;;21.33;16.20;;;11.70;98.30;;;;;;5178161;22;20420;-82
2021/05/19 06:06:12;;;;;;;19.17;15.43;;;11.70;98.30;;;;;;5169036;22;20451;-83
2021/05/19 06:08:15;;;;;;;17.57;14.63;;;11.70;98.30;;;;;;5169783;23;20499;-83
2021/05/19 06:10:17;;;;;;;51.17;34.13;;;11.60;98.30;;;;;;5169553;23;20801;-82
2021/05/19 06:12:20;;;;;;;37.70;28.07;;;11.60;98.30;;;;;;5178820;23;20508;-82
2021/05/19 06:14:23;;;;;;;23.90;17.80;;;11.60;98.30;;;;;;5176490;22;20440;-83
2021/05/19 06:16:27;;;;;;;18.40;15.57;;;11.70;98.30;;;;;;5168357;23;20428;-83
2021/05/19 06:18:31;;;;;;;17.30;14.73;;;11.70;98.30;;;;;;5168411;23;20543;-82
2021/05/19 06:20:33;;;;;;;20.53;15.50;;;11.80;98.30;;;;;;5166977;23;20416;-83
2021/05/19 06:22:35;;;;;;;16.67;14.87;;;11.80;98.30;;;;;;5175121;23;20855;-82
2021/05/19 06:24:38;;;;;;;14.23;12.70;;;12.10;98.30;;;;;;5175599;22;20443;-82
2021/05/19 06:26:41;;;;;;;16.70;13.30;;;12.10;98.30;;;;;;5166991;23;20484;-83
2021/05/19 06:28:43;;;;;;;18.63;14.47;;;12.10;98.30;;;;;;5167241;23;20436;-83
2021/05/19 06:30:45;;;;;;;16.37;14.17;;;12.20;98.30;;;;;;5175375;23;20426;-83
2021/05/19 06:32:48;;;;;;;16.83;13.97;;;12.30;98.30;;;;;;5167065;23;20412;-82
2021/05/19 06:34:51;;;;;;;15.67;13.40;;;12.20;98.30;;;;;;5167026;22;20462;-82
2021/05/19 06:36:54;;;;;;;15.70;13.00;;;12.20;98.30;;;;;;5175873;23;21126;-82
2021/05/19 06:38:57;;;;;;;15.23;12.40;;;12.10;98.30;;;;;;5177215;22;20901;-83
2021/05/19 06:40:59;;;;;;;14.20;12.03;;;12.10;98.30;;;;;;5176182;23;20431;-83
2021/05/19 06:43:01;;;;;;;14.40;12.43;;;12.30;98.30;;;;;;5167737;23;20499;-83
2021/05/19 06:45:05;;;;;;;13.53;12.13;;;12.30;98.30;;;;;;5166827;22;20504;-83
2021/05/19 06:47:07;;;;;;;18.70;12.30;;;12.40;98.30;;;;;;5175263;23;20981;-83
2021/05/19 06:49:09;;;;;;;54.07;38.57;;;12.50;98.30;;;;;;5175748;23;20412;-83
2021/05/19 06:51:14;;;;;;;17.77;13.60;;;12.70;98.30;;;;;;5170244;23;20424;-83
2021/05/19 06:53:17;;;;;;;40.03;30.33;;;12.60;98.30;;;;;;5177279;22;20496;-82
2021/05/19 06:55:19;;;;;;;15.20;13.47;;;12.50;98.30;;;;;;5168282;22;20447;-82
2021/05/19 06:57:22;;;;;;;16.23;11.93;;;12.50;98.30;;;;;;5168290;23;20428;-82
2021/05/19 06:59:24;;;;;;;15.40;13.43;;;12.80;98.30;;;;;;5176928;23;20775;-82
2021/05/19 07:01:26;;;;;;;11.73;10.53;;;12.90;98.30;;;;;;5176246;23;20426;-82
2021/05/19 07:03:29;;;;;;;12.00;10.80;;;12.90;98.30;;;;;;5168629;23;20432;-82
2021/05/19 07:05:31;;;;;;;11.73;10.53;;;12.80;98.30;;;;;;5167559;22;20452;-82
2021/05/19 07:07:35;;;;;;;11.43;10.23;;;12.80;98.30;;;;;;5167526;23;20431;-82
2021/05/19 07:09:37;;;;;;;14.57;11.17;;;12.80;98.30;;;;;;5164941;23;20463;-82
2021/05/19 07:11:39;;;;;;;13.53;11.07;;;12.80;98.30;;;;;;5164304;23;20424;-82
2021/05/19 07:13:42;;;;;;;11.80;10.70;;;12.90;98.30;;;;;;5165289;23;20424;-82
2021/05/19 07:15:47;;;;;;;12.40;9.80;;;13.10;98.30;;;;;;5164936;22;20781;-83
2021/05/19 07:17:49;;;;;;;13.87;8.97;;;13.20;98.30;;;;;;5165517;22;20451;-82
2021/05/19 07:19:52;;;;;;;9.23;8.43;;;13.40;98.30;;;;;;5165549;23;20428;-82
2021/05/19 07:21:54;;;;;;;9.13;8.30;;;13.50;98.30;;;;;;5164567;23;20760;-82
2021/05/19 07:23:57;;;;;;;10.17;9.20;;;13.50;98.30;;;;;;5166435;23;20820;-82
2021/05/19 07:26:00;;;;;;;9.77;8.77;;;13.50;98.30;;;;;;5167466;22;20523;-82
2021/05/19 07:28:02;;;;;;;10.40;9.13;;;13.30;98.30;;;;;;5167847;23;20423;-82
2021/05/19 07:30:06;;;;;;;10.90;9.83;;;13.30;98.30;;;;;;5168115;23;20434;-82
2021/05/19 07:32:08;;;;;;;12.60;10.20;;;13.30;98.30;;;;;;5169339;22;20428;-82
2021/05/19 07:34:11;;;;;;;10.60;9.50;;;13.10;98.30;;;;;;5169030;22;20427;-82
2021/05/19 07:36:13;;;;;;;11.40;10.23;;;13.00;98.30;;;;;;5168904;23;20424;-82
2021/05/19 07:38:16;;;;;;;10.70;9.67;;;12.90;98.30;;;;;;5169430;23;20427;-82
2021/05/19 07:40:20;;;;;;;11.20;10.10;;;13.00;98.30;;;;;;5169587;23;20428;-82
2021/05/19 07:42:23;;;;;;;10.30;9.30;;;13.10;98.30;;;;;;5169043;23;20485;-82
2021/05/19 07:44:26;;;;;;;11.07;9.97;;;13.30;98.30;;;;;;5169009;22;20448;-82
2021/05/19 07:46:27;;;;;;;10.60;9.10;;;13.50;98.30;;;;;;5168978;23;20446;-82
2021/05/19 07:48:28;;;;;;;10.27;9.10;;;13.50;98.30;;;;;;5169246;23;20404;-82
2021/05/19 07:50:30;;;;;;;12.10;9.63;;;13.60;98.30;;;;;;5168974;23;20499;-82
2021/05/19 07:52:31;;;;;;;12.80;10.87;;;13.50;98.30;;;;;;5169354;23;20414;-82
2021/05/19 07:54:33;;;;;;;32.20;24.17;;;13.40;98.30;;;;;;5177107;22;20541;-82
2021/05/19 07:56:38;;;;;;;17.17;14.70;;;13.50;98.30;;;;;;5169193;22;20807;-82
2021/05/19 07:58:42;;;;;;;10.90;9.80;;;13.80;98.30;;;;;;5168452;23;20412;-84
2021/05/19 08:00:59;;;;;;;9.93;8.93;;;13.80;98.30;;;;;;5168862;23;20412;-82
2021/05/19 08:03:00;;;;;;;9.23;8.30;;;13.80;98.30;;;;;;5169563;22;20450;-82
2021/05/19 08:05:01;;;;;;;11.97;9.03;;;13.40;98.30;;;;;;5169191;22;20776;-82
2021/05/19 08:07:04;;;;;;;9.97;8.97;;;13.20;98.30;;;;;;5169582;23;20473;-82
2021/05/19 08:09:06;;;;;;;10.77;9.63;;;13.00;98.30;;;;;;5170866;23;20499;-82
2021/05/19 08:11:07;;;;;;;12.60;10.17;;;12.90;98.30;;;;;;5171006;23;20404;-82
2021/05/19 08:13:09;;;;;;;14.33;11.10;;;13.20;98.30;;;;;;5171029;23;20408;-82
2021/05/19 08:15:13;;;;;;;49.20;35.03;;;13.40;98.30;;;;;;5170328;22;20432;-84
2021/05/19 08:17:17;;;;;;;11.63;10.40;;;13.70;98.30;;;;;;5178605;23;20458;-82
2021/05/19 08:19:18;;;;;;;9.67;8.70;;;14.00;98.30;;;;;;5170905;23;20470;-82
2021/05/19 08:21:20;;;;;;;9.37;8.30;;;14.20;98.30;;;;;;5171186;23;20423;-82
2021/05/19 08:23:23;;;;;;;9.53;8.50;;;14.40;98.30;;;;;;5178204;23;20458;-82
2021/05/19 08:25:25;;;;;;;10.33;9.33;;;14.40;98.30;;;;;;5169782;22;20883;-82
2021/05/19 08:27:27;;;;;;;10.70;9.30;;;14.30;98.30;;;;;;5170592;23;20435;-82
2021/05/19 08:29:31;;;;;;;11.33;10.23;;;14.30;98.30;;;;;;5170836;23;21091;-82
2021/05/19 08:31:33;;;;;;;11.13;9.83;;;14.30;98.30;;;;;;5170845;23;20431;-82
2021/05/19 08:33:47;;;;;;;9.70;8.57;;;14.50;98.30;;;;;;5170899;23;20958;-82
2021/05/19 08:35:49;;;;;;;8.70;7.80;;;14.80;98.30;;;;;;5169751;22;20456;-82
2021/05/19 08:37:52;;;;;;;8.77;7.90;;;14.70;98.30;;;;;;5177971;23;20905;-82
2021/05/19 08:39:54;;;;;;;12.30;8.37;;;14.50;98.30;;;;;;5170249;23;20521;-82
2021/05/19 08:41:57;;;;;;;10.40;9.30;;;14.30;98.30;;;;;;5170229;23;20434;-82
2021/05/19 08:43:59;;;;;;;10.13;8.63;;;14.20;98.30;;;;;;5169712;23;20928;-82
2021/05/19 08:46:05;;;;;;;8.60;7.80;;;14.00;98.30;;;;;;5168173;22;20456;-82
2021/05/19 08:48:08;;;;;;;9.73;8.43;;;14.00;98.30;;;;;;5168794;23;20423;-82
2021/05/19 08:50:11;;;;;;;8.90;7.23;;;14.10;98.30;;;;;;5168870;22;20428;-82
2021/05/19 08:52:13;;;;;;;7.77;6.97;;;14.30;98.30;;;;;;5171505;22;20427;-82
2021/05/19 08:54:18;;;;;;;7.93;6.63;;;14.50;98.30;;;;;;5169594;22;20460;-82
2021/05/19 08:56:20;;;;;;;8.10;6.60;;;14.80;98.30;;;;;;5169306;23;20746;-82
2021/05/19 08:58:23;;;;;;;7.40;6.60;;;15.00;98.30;;;;;;5168982;23;20428;-82
2021/05/19 09:00:30;;;;;;;8.77;7.67;;;15.20;97.30;;;;;;5170093;23;20439;-82
2021/05/19 09:02:33;;;;;;;12.63;9.97;;;14.90;97.40;;;;;;5169699;23;20454;-82
2021/05/19 09:04:35;;;;;;;7.57;6.77;;;14.80;97.80;;;;;;5169252;22;20444;-82
2021/05/19 09:06:38;;;;;;;7.30;6.50;;;14.90;96.50;;;;;;5169044;23;20487;-82
2021/05/19 09:08:41;;;;;;;9.30;8.27;;;14.80;97.40;;;;;;5169789;23;20428;-82
2021/05/19 09:10:45;;;;;;;9.97;8.50;;;15.00;98.30;;;;;;5170968;23;20482;-82
2021/05/19 09:12:47;;;;;;;7.67;6.90;;;15.50;98.30;;;;;;5171715;23;20930;-82
2021/05/19 09:15:02;;;;;;;7.97;6.90;;;15.70;96.20;;;;;;5170766;22;20448;-82
2021/05/19 09:17:23;;;;;;;8.43;7.47;;;15.60;96.20;;;;;;5170713;23;20427;-82
2021/05/19 09:19:33;;;;;;;9.80;8.17;;;15.50;96.30;;;;;;5171567;22;20435;-82
2021/05/19 09:21:39;;;;;;;9.20;7.60;;;15.50;96.30;;;;;;5171111;23;20428;-82
2021/05/19 09:23:52;;;;;;;8.10;7.30;;;15.40;95.40;;;;;;5170840;23;20412;-82
2021/05/19 09:26:04;;;;;;;8.97;6.90;;;15.50;95.50;;;;;;5170685;22;20509;-82
2021/05/19 09:28:07;;;;;;;7.20;6.50;;;15.40;95.50;;;;;;5171008;23;20917;-82
2021/05/19 09:30:11;;;;;;;8.10;7.30;;;15.30;96.00;;;;;;5171257;23;20435;-82
2021/05/19 09:32:15;;;;;;;7.17;6.47;;;15.20;96.80;;;;;;5171489;23;20519;-82
2021/05/19 09:34:28;;;;;;;7.60;6.80;;;15.30;96.10;;;;;;5170034;22;20428;-82
2021/05/19 09:36:31;;;;;;;8.07;6.80;;;15.50;96.20;;;;;;5170746;23;20403;-82
2021/05/19 09:38:34;;;;;;;8.97;6.63;;;15.90;97.20;;;;;;5171261;23;20428;-82
2021/05/19 09:40:37;;;;;;;8.60;6.60;;;16.40;95.60;;;;;;5170571;23;20453;-83
2021/05/19 09:42:48;;;;;;;7.77;7.03;;;16.30;95.20;;;;;;5169958;23;20430;-82
2021/05/19 09:44:51;;;;;;;7.87;6.43;;;16.30;94.70;;;;;;5169142;22;20439;-82
2021/05/19 09:46:54;;;;;;;7.83;7.10;;;16.10;95.50;;;;;;5170102;23;20452;-82
2021/05/19 09:49:13;;;;;;;7.77;6.97;;;16.30;96.30;;;;;;5170789;23;20472;-83
2021/05/19 09:51:26;;;;;;;7.10;6.40;;;16.70;95.30;;;;;;5171099;23;20450;-82
2021/05/19 09:53:33;;;;;;;7.60;6.80;;;16.80;94.50;;;;;;5170585;23;20427;-82
2021/05/19 09:55:38;;;;;;;7.60;6.90;;;16.60;94.20;;;;;;5169025;22;20459;-82
2021/05/19 09:57:45;;;;;;;8.47;6.40;;;16.30;94.60;;;;;;5170820;23;20430;-82
2021/05/19 09:59:49;;;;;;;6.87;6.00;;;16.50;94.60;;;;;;5171175;23;20413;-83
2021/05/19 10:01:53;;;;;;;6.37;5.73;;;16.70;93.70;;;;;;5180035;23;20420;-82
2021/05/19 10:03:55;;;;;;;6.80;6.10;;;16.80;93.10;;;;;;5169987;23;20973;-82
2021/05/19 10:06:03;;;;;;;7.57;6.87;;;16.60;92.90;;;;;;5170262;22;20474;-83
2021/05/19 10:08:06;;;;;;;7.73;6.10;;;16.50;93.90;;;;;;5171381;23;20438;-82
2021/05/19 10:10:10;;;;;;;6.23;5.63;;;16.40;93.50;;;;;;5170638;23;20734;-82
2021/05/19 10:12:13;;;;;;;6.27;5.67;;;16.60;93.10;;;;;;5166791;22;20436;-82
2021/05/19 10:14:16;;;;;;;6.67;5.40;;;16.60;93.20;;;;;;5166278;22;20838;-82
2021/05/19 10:16:21;;;;;;;6.93;6.23;;;16.70;92.70;;;;;;5167642;23;20428;-82
2021/05/19 10:18:26;;;;;;;7.30;5.90;;;16.70;92.00;;;;;;5167320;22;20427;-82
2021/05/19 10:20:31;;;;;;;7.53;6.10;;;16.70;93.20;;;;;;5167719;22;20436;-82
2021/05/19 10:22:36;;;;;;;6.97;5.30;;;16.70;91.80;;;;;;5169089;23;20428;-82
2021/05/19 10:24:46;;;;;;;6.33;5.33;;;16.60;92.70;;;;;;5170520;22;20459;-82
2021/05/19 10:27:01;;;;;;;7.20;5.53;;;16.80;93.50;;;;;;5180245;23;21191;-83
2021/05/19 10:29:03;;;;;;;5.30;4.80;;;17.00;92.20;;;;;;5171343;23;20418;-82
2021/05/19 10:31:27;;;;;;;5.50;4.60;;;17.20;90.00;;;;;;5180079;23;20416;-83
2021/05/19 10:33:47;;;;;;;5.83;4.93;;;17.50;89.20;;;;;;5171089;22;20404;-83